Time;durP1;ratioP1;P1;durP2;ratioP2;P2;SDS_P1;SDS_P2;PMS_P1;PMS_P2;Temp;Humidity;BMP_temperature;BMP_pressure;BME280_temperature;BME280_humidity;BME280_pressure;Samples;Min_cycle;Max_cycle;Signal;HPM_P1;HPM_P2
2023/11/17 00:01:15;;;;;;;12.77;2.83;;;4.20;99.90;;;;;;5014971;28;20105;-76
2023/11/17 00:03:41;;;;;;;7.53;3.20;;;4.20;99.90;;;;;;5014806;28;20029;-76
2023/11/17 00:06:07;;;;;;;7.43;2.78;;;4.20;99.90;;;;;;5013555;28;20030;-76
2023/11/17 00:08:33;;;;;;;7.90;3.10;;;4.20;99.90;;;;;;5014104;28;20378;-76
2023/11/17 00:10:59;;;;;;;4.40;2.17;;;4.20;99.90;;;;;;5013532;28;20029;-76
2023/11/17 00:13:25;;;;;;;4.95;2.08;;;4.20;99.90;;;;;;5015032;28;20029;-76
2023/11/17 00:15:51;;;;;;;7.75;2.25;;;4.20;99.90;;;;;;5014460;28;20041;-76
2023/11/17 00:18:18;;;;;;;7.53;2.72;;;4.20;99.90;;;;;;5014434;28;20474;-76
2023/11/17 00:20:44;;;;;;;5.68;2.17;;;4.20;99.90;;;;;;5013185;28;20034;-76
2023/11/17 00:23:09;;;;;;;5.93;2.47;;;3.90;99.90;;;;;;5013070;28;20021;-76
2023/11/17 00:25:35;;;;;;;5.82;2.53;;;4.20;99.90;;;;;;5013076;28;20077;-76
2023/11/17 00:28:00;;;;;;;5.20;1.77;;;4.20;99.90;;;;;;5014100;28;20034;-77
2023/11/17 00:30:26;;;;;;;5.70;2.22;;;4.20;99.90;;;;;;5013333;28;20018;-76
2023/11/17 00:32:53;;;;;;;9.93;1.73;;;4.30;99.90;;;;;;5013109;28;20428;-77
2023/11/17 00:35:18;;;;;;;8.57;2.90;;;4.30;99.90;;;;;;5014387;28;20029;-76
2023/11/17 00:37:44;;;;;;;12.23;2.25;;;4.30;99.90;;;;;;5014301;28;20104;-77
2023/11/17 00:40:13;;;;;;;7.25;1.90;;;4.30;99.90;;;;;;5014176;28;20018;-76
2023/11/17 00:42:39;;;;;;;5.60;2.70;;;4.30;99.90;;;;;;5014031;28;20058;-76
2023/11/17 00:45:07;;;;;;;5.75;2.35;;;4.40;99.90;;;;;;5014185;28;20394;-76
2023/11/17 00:47:33;;;;;;;6.68;2.05;;;4.40;99.90;;;;;;5013982;28;20037;-76
2023/11/17 00:49:59;;;;;;;8.07;2.50;;;4.30;99.90;;;;;;5013972;28;20017;-76
2023/11/17 00:52:25;;;;;;;7.70;2.75;;;4.40;99.90;;;;;;5012810;28;20029;-76
2023/11/17 00:54:53;;;;;;;8.38;3.42;;;4.40;99.90;;;;;;5014362;28;20022;-76
2023/11/17 00:57:19;;;;;;;6.10;2.88;;;4.40;99.90;;;;;;5012680;28;20025;-76
2023/11/17 00:59:45;;;;;;;12.63;4.13;;;4.40;99.90;;;;;;5013581;28;20069;-76
2023/11/17 01:02:11;;;;;;;9.73;4.20;;;4.50;99.90;;;;;;5013795;28;20057;-76
2023/11/17 01:04:37;;;;;;;9.10;3.70;;;4.40;99.90;;;;;;5014319;28;20026;-76
2023/11/17 01:07:02;;;;;;;10.70;4.60;;;4.50;99.90;;;;;;5013559;28;20040;-76
2023/11/17 01:09:28;;;;;;;14.68;6.18;;;4.40;99.90;;;;;;5013597;28;20025;-77
2023/11/17 01:11:54;;;;;;;20.05;4.95;;;4.50;99.90;;;;;;5013615;28;20014;-77
2023/11/17 01:14:20;;;;;;;20.50;8.07;;;4.40;99.90;;;;;;5013624;28;20374;-76
2023/11/17 01:16:46;;;;;;;15.65;6.38;;;4.50;99.90;;;;;;5013704;28;20032;-76
2023/11/17 01:19:12;;;;;;;14.02;5.57;;;4.50;99.90;;;;;;5013226;28;20513;-76
2023/11/17 01:21:37;;;;;;;17.80;6.57;;;4.50;99.90;;;;;;5012299;28;20026;-76
2023/11/17 01:24:05;;;;;;;17.80;6.38;;;4.40;99.90;;;;;;5013584;28;20056;-77
2023/11/17 01:26:31;;;;;;;11.93;4.63;;;4.40;99.90;;;;;;5012327;28;20026;-77
2023/11/17 01:28:56;;;;;;;9.05;3.75;;;4.40;99.90;;;;;;5012266;28;20032;-76
2023/11/17 01:31:22;;;;;;;10.82;3.92;;;4.40;99.90;;;;;;5013446;28;20018;-76
2023/11/17 01:33:48;;;;;;;9.32;4.65;;;4.40;99.90;;;;;;5013577;28;20022;-76
2023/11/17 01:36:20;;;;;;;11.02;4.30;;;4.40;99.90;;;;;;5013617;28;20474;-77
2023/11/17 01:38:46;;;;;;;11.68;3.83;;;4.40;99.90;;;;;;5012008;28;20018;-76
2023/11/17 01:41:12;;;;;;;9.30;4.38;;;4.50;99.90;;;;;;5012131;28;20070;-76
2023/11/17 01:43:38;;;;;;;12.73;4.20;;;4.50;99.90;;;;;;5013299;28;20030;-76
2023/11/17 01:46:05;;;;;;;14.65;3.35;;;4.50;99.90;;;;;;5011982;28;20022;-76
2023/11/17 01:48:33;;;;;;;9.88;3.42;;;4.50;99.90;;;;;;5012392;28;20037;-77
2023/11/17 01:51:00;;;;;;;12.25;3.65;;;4.50;99.90;;;;;;5014031;28;20084;-77
2023/11/17 01:53:26;;;;;;;9.38;3.45;;;4.50;99.90;;;;;;5013319;28;20053;-76
2023/11/17 01:55:52;;;;;;;12.07;3.90;;;4.50;99.90;;;;;;5013308;28;20473;-76
2023/11/17 01:58:19;;;;;;;7.18;3.00;;;4.50;99.90;;;;;;5011961;28;20049;-77
2023/11/17 02:00:44;;;;;;;8.48;3.53;;;4.50;99.90;;;;;;5013662;28;20033;-75
2023/11/17 02:03:12;;;;;;;11.10;4.50;;;4.50;99.90;;;;;;5013647;28;20022;-77
2023/11/17 02:05:38;;;;;;;12.60;4.93;;;4.50;99.90;;;;;;5013982;28;20033;-79
2023/11/17 02:08:32;;;;;;;12.10;4.22;;;4.50;99.90;;;;;;5013741;28;20390;-77
2023/11/17 02:11:24;;;;;;;14.18;6.40;;;4.50;99.90;;;;;;5012302;28;20589;-77
2023/11/17 02:14:00;;;;;;;19.50;6.03;;;4.50;99.90;;;;;;5014577;28;20022;-77
2023/11/17 02:16:26;;;;;;;11.18;5.15;;;4.50;99.90;;;;;;5014011;28;20140;-77
2023/11/17 02:18:58;;;;;;;13.73;5.32;;;4.50;99.90;;;;;;5013970;28;20029;-77
2023/11/17 02:21:29;;;;;;;12.70;4.43;;;4.50;99.90;;;;;;5013895;28;20041;-77
2023/11/17 02:23:55;;;;;;;11.43;2.95;;;4.50;99.90;;;;;;5014049;28;20032;-77
2023/11/17 02:26:43;;;;;;;7.95;3.63;;;4.50;99.90;;;;;;5012743;28;20040;-77
2023/11/17 02:29:19;;;;;;;11.10;3.38;;;4.50;99.90;;;;;;5014099;28;20029;-77
2023/11/17 02:31:45;;;;;;;8.65;3.15;;;4.50;99.90;;;;;;5015883;28;20025;-77
2023/11/17 02:34:14;;;;;;;9.43;4.28;;;4.40;99.90;;;;;;5016392;28;20022;-77
2023/11/17 02:36:40;;;;;;;12.25;3.80;;;4.40;99.90;;;;;;5016567;28;20022;-77
2023/11/17 02:39:14;;;;;;;8.23;4.20;;;4.40;99.90;;;;;;5015988;28;20026;-77
2023/11/17 02:41:44;;;;;;;7.72;4.22;;;4.40;99.90;;;;;;5018046;28;20049;-77
2023/11/17 02:44:15;;;;;;;8.15;3.40;;;4.40;99.90;;;;;;5015781;28;20026;-77
2023/11/17 02:46:44;;;;;;;6.72;2.55;;;4.40;99.90;;;;;;5015810;28;20033;-78
2023/11/17 02:49:17;;;;;;;;;;;4.40;99.90;;;;;;5015423;28;20056;-75
2023/11/17 02:51:45;;;;;;;5.35;2.25;;;4.40;99.90;;;;;;5017042;28;19905;-77
2023/11/17 02:54:13;;;;;;;10.40;2.78;;;4.40;99.90;;;;;;5015507;28;20022;-77
2023/11/17 02:56:39;;;;;;;4.57;1.80;;;4.40;99.90;;;;;;5015066;28;20026;-75
2023/11/17 02:59:07;;;;;;;4.63;2.50;;;4.40;99.90;;;;;;5016079;28;20040;-75
2023/11/17 03:01:37;;;;;;;6.07;2.30;;;4.30;99.90;;;;;;5016144;28;20026;-75
2023/11/17 03:04:02;;;;;;;4.65;2.42;;;4.30;99.90;;;;;;5015456;28;20026;-77
2023/11/17 03:06:29;;;;;;;4.20;1.67;;;4.30;99.90;;;;;;5016421;28;20037;-77
2023/11/17 03:08:54;;;;;;;8.02;2.55;;;4.20;99.90;;;;;;5016801;28;20037;-77
2023/11/17 03:11:21;;;;;;;6.13;2.58;;;4.20;99.90;;;;;;5015459;28;20038;-77
2023/11/17 03:13:48;;;;;;;5.18;2.08;;;4.20;99.90;;;;;;5016380;28;20025;-77
2023/11/17 03:16:23;;;;;;;5.70;1.85;;;4.10;99.90;;;;;;5016524;28;20045;-77
2023/11/17 03:18:52;;;;;;;6.20;1.70;;;4.20;99.90;;;;;;5016207;28;20037;-77
2023/11/17 03:21:23;;;;;;;;;;;4.20;99.90;;;;;;5017067;28;20115;-77
2023/11/17 03:23:50;;;;;;;3.20;1.38;;;4.00;99.90;;;;;;5015079;28;19909;-77
2023/11/17 03:26:17;;;;;;;4.55;1.45;;;4.10;99.90;;;;;;5015336;28;20022;-77
2023/11/17 03:28:43;;;;;;;8.75;1.90;;;4.20;99.90;;;;;;5015059;28;20044;-77
2023/11/17 03:31:13;;;;;;;5.13;1.60;;;4.20;99.90;;;;;;5015133;28;20112;-78
2023/11/17 03:33:43;;;;;;;6.07;2.08;;;4.20;99.90;;;;;;5016157;28;20022;-75
2023/11/17 03:36:12;;;;;;;4.72;1.70;;;4.20;99.90;;;;;;5014336;28;20133;-77
2023/11/17 03:38:38;;;;;;;4.07;2.13;;;;;;;;;;5015808;28;20030;-77
2023/11/17 03:41:04;;;;;;;6.47;2.00;;;4.20;99.90;;;;;;5014193;28;20026;-75
2023/11/17 03:43:29;;;;;;;8.48;2.42;;;4.20;99.90;;;;;;5014538;28;20555;-77
2023/11/17 03:45:55;;;;;;;7.25;1.80;;;4.20;99.90;;;;;;5014631;28;20030;-77
2023/11/17 03:48:22;;;;;;;6.22;1.90;;;4.20;99.90;;;;;;5014524;28;20025;-77
2023/11/17 03:50:49;;;;;;;5.75;1.77;;;4.20;99.90;;;;;;5014422;28;20026;-77
2023/11/17 03:53:15;;;;;;;8.90;2.05;;;4.50;99.90;;;;;;5015919;28;20389;-77
2023/11/17 03:55:42;;;;;;;6.35;1.48;;;4.20;99.90;;;;;;5014528;28;20019;-77
2023/11/17 03:58:07;;;;;;;6.95;1.83;;;4.10;99.90;;;;;;5016089;28;20104;-77
2023/11/17 04:00:33;;;;;;;9.43;2.03;;;4.10;99.90;;;;;;5015519;28;20037;-76
2023/11/17 04:02:59;;;;;;;3.53;1.65;;;4.10;99.90;;;;;;5015489;28;20029;-76
2023/11/17 04:05:25;;;;;;;5.22;1.63;;;4.10;99.90;;;;;;5014260;28;20053;-75
2023/11/17 04:07:54;;;;;;;5.40;2.08;;;4.10;99.90;;;;;;5014966;28;20018;-76
2023/11/17 04:10:21;;;;;;;5.32;1.30;;;4.00;99.90;;;;;;5013818;28;20068;-75
2023/11/17 04:12:46;;;;;;;4.53;1.40;;;4.00;99.90;;;;;;5013991;28;20072;-77
2023/11/17 04:15:12;;;;;;;5.25;1.70;;;4.00;99.90;;;;;;5015820;28;20420;-75
2023/11/17 04:17:38;;;;;;;7.22;2.00;;;4.00;99.90;;;;;;5015704;28;20033;-77
2023/11/17 04:20:05;;;;;;;6.15;2.30;;;;;;;;;;5014052;28;20084;-77
2023/11/17 04:22:30;;;;;;;5.70;1.63;;;4.10;99.90;;;;;;5014738;28;20112;-78
2023/11/17 04:24:56;;;;;;;3.85;1.40;;;4.00;99.90;;;;;;5013341;28;20417;-77
2023/11/17 04:27:21;;;;;;;4.43;1.63;;;4.00;99.90;;;;;;5014290;28;20604;-75
2023/11/17 04:29:47;;;;;;;6.45;1.60;;;4.00;99.90;;;;;;5015039;28;20030;-77
2023/11/17 04:32:13;;;;;;;5.22;2.15;;;4.00;99.90;;;;;;5015879;28;20064;-75
2023/11/17 04:34:39;;;;;;;7.63;1.70;;;4.00;99.90;;;;;;5015267;28;20073;-78
2023/11/17 04:37:05;;;;;;;3.83;1.85;;;4.00;99.90;;;;;;5015549;28;20481;-76
2023/11/17 04:39:31;;;;;;;6.40;1.48;;;4.00;99.90;;;;;;5014055;28;20070;-75
2023/11/17 04:41:56;;;;;;;3.53;1.45;;;4.10;99.90;;;;;;5015814;28;20493;-77
2023/11/17 04:44:22;;;;;;;6.28;1.88;;;4.00;99.90;;;;;;5015364;28;20018;-77
2023/11/17 04:46:48;;;;;;;5.95;1.80;;;4.10;99.90;;;;;;5015234;28;20049;-76
2023/11/17 04:49:14;;;;;;;4.10;2.03;;;4.10;99.90;;;;;;5013591;28;20492;-76
2023/11/17 04:51:46;;;;;;;4.40;1.48;;;4.10;99.90;;;;;;5014097;28;20029;-76
2023/11/17 04:54:14;;;;;;;7.00;1.88;;;4.10;99.90;;;;;;5012168;28;20081;-76
2023/11/17 04:56:41;;;;;;;4.35;1.30;;;4.10;99.90;;;;;;5012578;28;20014;-77
2023/11/17 04:59:07;;;;;;;3.25;1.70;;;4.20;99.90;;;;;;5013644;28;20172;-76
2023/11/17 05:01:34;;;;;;;5.90;1.55;;;4.10;99.90;;;;;;5012597;28;20026;-76
2023/11/17 05:04:00;;;;;;;3.60;1.48;;;4.10;99.90;;;;;;5012538;28;20105;-76
2023/11/17 05:06:25;;;;;;;5.47;1.85;;;4.10;99.90;;;;;;5013778;28;20037;-76
2023/11/17 05:08:54;;;;;;;5.70;1.75;;;4.10;99.90;;;;;;5013522;28;20018;-76
2023/11/17 05:11:23;;;;;;;5.22;1.60;;;4.10;99.90;;;;;;5012391;28;20018;-76
2023/11/17 05:13:49;;;;;;;7.78;1.77;;;4.10;99.90;;;;;;5012396;28;20018;-76
2023/11/17 05:16:15;;;;;;;9.05;2.05;;;4.10;99.90;;;;;;5012266;28;20022;-76
2023/11/17 05:18:42;;;;;;;4.57;2.00;;;4.20;99.90;;;;;;5013517;28;20037;-76
2023/11/17 05:21:09;;;;;;;5.90;2.33;;;4.00;99.90;;;;;;5013583;28;20050;-76
2023/11/17 05:23:38;;;;;;;3.88;2.10;;;4.20;99.90;;;;;;5012403;28;20025;-77
2023/11/17 05:26:06;;;;;;;14.25;2.13;;;4.20;99.90;;;;;;5012629;28;20029;-77
2023/11/17 05:28:33;;;;;;;6.40;1.77;;;4.20;99.90;;;;;;5013831;28;20018;-75
2023/11/17 05:31:01;;;;;;;9.27;2.47;;;4.20;99.90;;;;;;5013925;28;20021;-77
2023/11/17 05:33:27;;;;;;;7.93;2.88;;;4.10;99.90;;;;;;5014294;28;20346;-75
2023/11/17 05:35:53;;;;;;;18.27;2.40;;;4.20;99.90;;;;;;5013651;28;20025;-77
2023/11/17 05:38:19;;;;;;;3.63;2.00;;;4.20;99.90;;;;;;5014126;28;20033;-75
2023/11/17 05:40:44;;;;;;;6.97;1.85;;;4.20;99.90;;;;;;5014289;28;20026;-76
2023/11/17 05:43:10;;;;;;;4.32;2.28;;;4.10;99.90;;;;;;5013359;28;20018;-77
2023/11/17 05:45:36;;;;;;;6.65;2.33;;;4.20;99.90;;;;;;5014128;28;20030;-75
2023/11/17 05:48:05;;;;;;;8.23;1.60;;;4.10;99.90;;;;;;5013962;28;20045;-77
2023/11/17 05:50:31;;;;;;;6.53;2.25;;;4.10;99.90;;;;;;5013804;28;20018;-75
2023/11/17 05:52:56;;;;;;;5.55;2.50;;;4.10;99.90;;;;;;5013615;28;20040;-75
2023/11/17 05:55:23;;;;;;;6.05;1.90;;;4.00;99.90;;;;;;5012209;28;20018;-75
2023/11/17 05:57:50;;;;;;;2.97;1.60;;;4.10;99.90;;;;;;5011953;28;20393;-77
2023/11/17 06:00:18;;;;;;;4.75;1.70;;;4.10;99.90;;;;;;5011913;28;20424;-76
2023/11/17 06:02:44;;;;;;;4.35;1.67;;;4.10;99.90;;;;;;5012920;28;20026;-78
2023/11/17 06:05:13;;;;;;;4.97;2.03;;;4.10;99.90;;;;;;5012448;28;20081;-77
2023/11/17 06:07:39;;;;;;;6.40;1.90;;;5.70;99.90;;;;;;5017616;28;20422;-77
2023/11/17 06:10:05;;;;;;;7.65;2.25;;;4.10;99.90;;;;;;5016778;28;20117;-77
2023/11/17 06:12:31;;;;;;;6.45;2.28;;;4.10;99.90;;;;;;5017643;28;20033;-77
2023/11/17 06:14:57;;;;;;;7.05;2.17;;;4.10;99.90;;;;;;5017829;28;20026;-78
2023/11/17 06:17:25;;;;;;;7.93;2.85;;;4.10;99.90;;;;;;5016443;28;20071;-77
2023/11/17 06:19:50;;;;;;;8.75;2.20;;;4.10;99.90;;;;;;5017604;28;20029;-77
2023/11/17 06:22:16;;;;;;;5.75;2.58;;;4.10;99.90;;;;;;5016537;28;20022;-77
2023/11/17 06:24:41;;;;;;;9.60;2.15;;;4.10;99.90;;;;;;5017513;28;20026;-77
2023/11/17 06:27:10;;;;;;;10.02;2.20;;;4.00;99.90;;;;;;5018030;28;20025;-77
2023/11/17 06:29:36;;;;;;;4.57;2.35;;;4.00;99.90;;;;;;5018095;28;20125;-77
2023/11/17 06:32:02;;;;;;;13.60;2.50;;;4.10;99.90;;;;;;5016112;28;20053;-77
2023/11/17 06:34:28;;;;;;;4.63;2.22;;;4.00;99.90;;;;;;5017357;28;20101;-77
2023/11/17 06:36:53;;;;;;;3.88;2.05;;;4.00;99.90;;;;;;5017554;28;20049;-77
2023/11/17 06:39:23;;;;;;;9.23;3.03;;;3.90;99.90;;;;;;5017393;28;20045;-77
2023/11/17 06:41:50;;;;;;;7.93;2.25;;;3.90;99.90;;;;;;5015709;28;20030;-77
2023/11/17 06:44:20;;;;;;;5.45;2.10;;;3.80;99.90;;;;;;5016954;28;20612;-77
2023/11/17 06:46:47;;;;;;;12.60;2.95;;;3.90;99.90;;;;;;5016078;28;20489;-77
2023/11/17 06:49:14;;;;;;;6.50;2.22;;;3.90;99.90;;;;;;5015320;28;20512;-78
2023/11/17 06:51:43;;;;;;;6.13;2.45;;;3.90;99.90;;;;;;5017145;28;20053;-76
2023/11/17 06:54:11;;;;;;;7.13;2.35;;;3.90;99.90;;;;;;5016916;28;20470;-77
2023/11/17 06:56:43;;;;;;;9.43;2.38;;;3.90;99.90;;;;;;5017624;28;20101;-77
2023/11/17 06:59:10;;;;;;;4.78;2.72;;;3.80;99.90;;;;;;5016105;28;20049;-77
2023/11/17 07:01:39;;;;;;;12.43;3.28;;;3.80;99.90;;;;;;5016352;28;20026;-77
2023/11/17 07:04:08;;;;;;;7.15;3.55;;;3.80;99.90;;;;;;5016460;28;20040;-77
2023/11/17 07:06:35;;;;;;;5.85;3.30;;;3.80;99.90;;;;;;5016516;28;20114;-77
2023/11/17 07:09:16;;;;;;;7.97;3.65;;;3.70;99.90;;;;;;5016619;28;20053;-77
2023/11/17 07:11:54;;;;;;;5.75;2.95;;;3.70;99.90;;;;;;5016771;28;20048;-77
2023/11/17 07:14:21;;;;;;;7.57;2.87;;;3.60;99.90;;;;;;5016104;28;20473;-78
2023/11/17 07:16:47;;;;;;;11.48;2.72;;;3.60;99.90;;;;;;5014457;28;20113;-75
2023/11/17 07:19:16;;;;;;;10.27;3.25;;;3.50;99.90;;;;;;5015987;28;20401;-76
2023/11/17 07:21:42;;;;;;;8.82;3.20;;;3.50;99.90;;;;;;5015850;28;20109;-77
2023/11/17 07:24:10;;;;;;;9.23;3.20;;;3.50;99.90;;;;;;5014810;28;20489;-75
2023/11/17 07:26:39;;;;;;;6.30;2.35;;;3.50;99.90;;;;;;5014606;28;20021;-77
2023/11/17 07:29:05;;;;;;;;;;;3.50;99.90;;;;;;5015817;28;20112;-76
2023/11/17 07:31:37;;;;;;;11.73;3.55;;;3.60;99.90;;;;;;5015790;28;20336;-76
2023/11/17 07:34:15;;;;;;;8.73;3.08;;;3.60;99.90;;;;;;5015975;28;20110;-77
2023/11/17 07:36:42;;;;;;;7.53;3.10;;;3.70;99.90;;;;;;5016025;28;20026;-75
2023/11/17 07:39:13;;;;;;;7.93;2.92;;;3.80;99.90;;;;;;5014636;28;20069;-75
2023/11/17 07:41:39;;;;;;;10.25;3.10;;;3.80;99.90;;;;;;5016119;28;20076;-75
2023/11/17 07:44:06;;;;;;;12.63;3.63;;;3.90;99.90;;;;;;5015404;28;20033;-77
2023/11/17 07:46:32;;;;;;;11.35;3.72;;;3.90;99.90;;;;;;5014059;28;20489;-75
2023/11/17 07:48:58;;;;;;;12.68;4.65;;;4.00;99.90;;;;;;5015423;28;20034;-78
2023/11/17 07:51:24;;;;;;;14.50;3.05;;;4.00;99.90;;;;;;5015710;28;20021;-77
2023/11/17 07:53:49;;;;;;;9.73;3.30;;;4.00;99.90;;;;;;5014398;28;20029;-77
2023/11/17 07:56:15;;;;;;;7.53;3.72;;;4.10;99.90;;;;;;5013978;28;20033;-76
2023/11/17 07:58:43;;;;;;;7.88;3.58;;;4.10;99.90;;;;;;5013815;28;20058;-76
2023/11/17 08:01:09;;;;;;;9.80;3.92;;;4.00;99.90;;;;;;5015280;28;20040;-77
2023/11/17 08:03:36;;;;;;;10.93;3.50;;;4.20;99.90;;;;;;5013656;28;20121;-75
2023/11/17 08:06:04;;;;;;;16.67;4.13;;;4.20;99.90;;;;;;5013762;28;20025;-78
2023/11/17 08:08:31;;;;;;;11.07;4.25;;;4.30;99.90;;;;;;5014826;28;20033;-78
2023/11/17 08:10:57;;;;;;;14.32;4.65;;;4.40;99.90;;;;;;5014962;28;20037;-75
2023/11/17 08:13:23;;;;;;;12.63;4.25;;;4.50;99.90;;;;;;5013603;28;20024;-75
2023/11/17 08:15:49;;;;;;;9.38;5.03;;;4.60;99.90;;;;;;5015061;28;20485;-77
2023/11/17 08:18:20;;;;;;;14.95;4.88;;;4.60;99.90;;;;;;5013520;28;20030;-76
2023/11/17 08:20:47;;;;;;;12.45;4.55;;;4.70;99.90;;;;;;5013863;28;20076;-77
2023/11/17 08:23:14;;;;;;;12.20;5.15;;;4.80;99.90;;;;;;5014784;28;20025;-76
2023/11/17 08:25:40;;;;;;;17.25;5.53;;;5.10;99.90;;;;;;5014776;28;20037;-77
2023/11/17 08:28:07;;;;;;;11.52;4.93;;;5.20;99.90;;;;;;5014440;28;20022;-76
2023/11/17 08:30:33;;;;;;;12.82;6.03;;;5.10;99.90;;;;;;5012735;28;20037;-76
2023/11/17 08:32:59;;;;;;;12.90;5.05;;;5.30;99.90;;;;;;5014763;28;20022;-77
2023/11/17 08:35:25;;;;;;;18.13;6.00;;;5.30;99.90;;;;;;5014646;28;20033;-77
2023/11/17 08:37:55;;;;;;;15.35;5.03;;;5.40;99.90;;;;;;5013476;28;20026;-77
2023/11/17 08:40:21;;;;;;;14.60;5.50;;;5.60;99.90;;;;;;5014478;28;20101;-77
2023/11/17 08:42:47;;;;;;;15.88;6.35;;;5.50;99.90;;;;;;5013527;28;20092;-77
2023/11/17 08:45:14;;;;;;;13.90;6.10;;;5.60;99.90;;;;;;5014175;28;20018;-77
2023/11/17 08:47:43;;;;;;;17.33;6.65;;;5.70;99.90;;;;;;5012971;28;20053;-77
2023/11/17 08:50:10;;;;;;;14.80;5.30;;;5.70;99.90;;;;;;5014002;28;20021;-76
2023/11/17 08:52:40;;;;;;;15.95;6.32;;;5.80;99.90;;;;;;5012904;28;20513;-77
2023/11/17 08:55:07;;;;;;;14.20;6.18;;;5.80;99.90;;;;;;5012816;28;20022;-76
2023/11/17 08:57:34;;;;;;;14.07;5.70;;;5.90;99.90;;;;;;5014470;28;20053;-77
2023/11/17 09:00:00;;;;;;;15.35;5.95;;;5.90;99.90;;;;;;5013841;28;20099;-77
2023/11/17 09:02:26;;;;;;;18.67;7.25;;;6.00;99.90;;;;;;5014475;28;20521;-77
2023/11/17 09:04:52;;;;;;;14.63;5.72;;;6.20;99.90;;;;;;5014259;28;20079;-77
2023/11/17 09:07:19;;;;;;;17.95;6.47;;;6.30;99.90;;;;;;5013879;28;20026;-77
2023/11/17 09:09:45;;;;;;;16.80;6.30;;;6.40;99.90;;;;;;5012543;28;20028;-77
2023/11/17 09:12:13;;;;;;;16.25;6.07;;;6.60;99.90;;;;;;5012628;28;20037;-77
2023/11/17 09:14:40;;;;;;;13.43;6.57;;;6.70;99.90;;;;;;5012757;28;20392;-77
2023/11/17 09:17:06;;;;;;;16.25;5.93;;;6.80;99.90;;;;;;5012570;28;20022;-77
2023/11/17 09:19:36;;;;;;;15.75;5.88;;;7.10;99.90;;;;;;5012431;28;20036;-77
2023/11/17 09:22:02;;;;;;;12.90;5.30;;;7.00;99.90;;;;;;5012657;28;20049;-77
2023/11/17 09:24:28;;;;;;;16.70;6.63;;;7.00;99.90;;;;;;5013915;28;20546;-77
2023/11/17 09:26:53;;;;;;;16.42;6.18;;;7.10;99.90;;;;;;5013983;28;20033;-76
2023/11/17 09:29:19;;;;;;;15.65;6.75;;;7.20;99.90;;;;;;5012659;28;20022;-76
2023/11/17 09:31:45;;;;;;;13.57;6.10;;;7.30;99.90;;;;;;5014654;28;20033;-77
2023/11/17 09:34:10;;;;;;;11.65;5.55;;;7.30;99.90;;;;;;5012547;28;20018;-77
2023/11/17 09:36:40;;;;;;;15.38;6.65;;;7.30;99.90;;;;;;5013698;28;20014;-77
2023/11/17 09:39:09;;;;;;;15.73;5.93;;;7.30;99.90;;;;;;5012503;28;20097;-77
2023/11/17 09:41:37;;;;;;;13.57;5.30;;;7.30;99.90;;;;;;5016179;28;20018;-77
2023/11/17 09:44:05;;;;;;;13.35;5.88;;;7.40;99.90;;;;;;5016761;28;20030;-77
2023/11/17 09:46:35;;;;;;;14.52;6.22;;;7.40;99.90;;;;;;5016608;28;20084;-77
2023/11/17 09:49:02;;;;;;;16.73;7.18;;;7.40;99.90;;;;;;5016285;28;20021;-77
2023/11/17 09:51:28;;;;;;;14.07;6.30;;;7.40;99.90;;;;;;5017702;28;20469;-77
2023/11/17 09:53:56;;;;;;;14.57;6.47;;;7.50;99.90;;;;;;5017820;28;20034;-77
2023/11/17 09:56:22;;;;;;;15.17;6.37;;;7.50;99.90;;;;;;5017774;28;20057;-77
2023/11/17 09:58:50;;;;;;;18.42;7.07;;;7.50;99.90;;;;;;5016197;28;20280;-77
2023/11/17 10:01:18;;;;;;;15.65;7.07;;;7.60;99.90;;;;;;5016429;28;20060;-77
2023/11/17 10:03:43;;;;;;;17.92;6.85;;;9.90;99.90;;;;;;5017955;28;20110;-77
2023/11/17 10:06:10;;;;;;;17.90;6.85;;;7.70;99.90;;;;;;5017393;28;20053;-76
2023/11/17 10:08:39;;;;;;;16.02;6.97;;;7.70;99.90;;;;;;5017221;28;20029;-77
2023/11/17 10:11:06;;;;;;;14.63;6.35;;;7.80;99.90;;;;;;5017337;28;20053;-77
2023/11/17 10:13:32;;;;;;;16.40;6.35;;;7.80;99.90;;;;;;5017069;28;20056;-77
2023/11/17 10:16:01;;;;;;;13.60;5.03;;;7.90;99.90;;;;;;5017318;28;20033;-77
2023/11/17 10:18:29;;;;;;;18.90;7.35;;;8.00;99.90;;;;;;5015964;28;20401;-77
2023/11/17 10:20:58;;;;;;;14.27;5.80;;;8.00;99.90;;;;;;5017127;28;20036;-77
2023/11/17 10:23:25;;;;;;;12.38;5.38;;;8.10;99.90;;;;;;5015839;28;20129;-77
2023/11/17 10:25:54;;;;;;;16.40;5.07;;;8.20;99.90;;;;;;5015660;28;20088;-77
2023/11/17 10:28:28;;;;;;;11.98;5.25;;;8.30;99.90;;;;;;5015754;28;20030;-77
2023/11/17 10:30:59;;;;;;;13.45;6.55;;;8.40;99.90;;;;;;5015688;28;20029;-77
2023/11/17 10:33:29;;;;;;;15.43;5.95;;;8.50;99.90;;;;;;5015842;28;20018;-77
2023/11/17 10:36:09;;;;;;;10.95;5.43;;;8.50;99.90;;;;;;5016788;28;20500;-77
2023/11/17 10:38:35;;;;;;;16.33;4.93;;;8.40;99.90;;;;;;5015693;28;20130;-78
2023/11/17 10:41:13;;;;;;;15.52;5.30;;;8.50;99.90;;;;;;5015421;28;20053;-78
2023/11/17 10:43:53;;;;;;;9.75;4.28;;;8.50;99.90;;;;;;5015533;28;20113;-77
2023/11/17 10:46:31;;;;;;;12.52;4.40;;;8.50;99.90;;;;;;5015508;28;20029;-77
2023/11/17 10:48:58;;;;;;;12.73;4.18;;;8.50;99.90;;;;;;5016611;28;20053;-77
2023/11/17 10:51:26;;;;;;;11.57;3.83;;;8.60;99.90;;;;;;5016193;28;20089;-77
2023/11/17 10:54:03;;;;;;;9.60;4.20;;;8.60;99.90;;;;;;5015079;28;20018;-77
2023/11/17 10:56:30;;;;;;;9.30;3.83;;;8.60;99.90;;;;;;5015384;28;20022;-77
2023/11/17 10:58:58;;;;;;;7.43;3.13;;;8.70;99.90;;;;;;5016480;28;20033;-76
2023/11/17 11:01:30;;;;;;;10.40;3.30;;;8.70;99.90;;;;;;5017416;28;20497;-77
2023/11/17 11:03:56;;;;;;;10.00;3.45;;;8.70;99.90;;;;;;5016133;28;20026;-78
2023/11/17 11:06:25;;;;;;;10.85;2.90;;;8.70;99.90;;;;;;5015418;28;20037;-77
2023/11/17 11:09:00;;;;;;;12.73;3.80;;;8.70;99.90;;;;;;5016340;28;20014;-76
2023/11/17 11:11:26;;;;;;;9.50;2.58;;;8.80;99.90;;;;;;5015199;28;20034;-78
2023/11/17 11:13:56;;;;;;;9.40;2.90;;;8.80;99.90;;;;;;5015426;28;20072;-77
2023/11/17 11:16:24;;;;;;;8.05;2.70;;;8.90;99.90;;;;;;5015173;28;20022;-76
2023/11/17 11:18:53;;;;;;;7.65;2.90;;;9.00;99.90;;;;;;5014946;28;20029;-78
2023/11/17 11:21:20;;;;;;;13.43;4.15;;;9.10;99.90;;;;;;5016573;28;20505;-78
2023/11/17 11:23:47;;;;;;;10.50;2.58;;;10.10;99.90;;;;;;5015307;28;20045;-76
2023/11/17 11:26:14;;;;;;;12.55;2.95;;;9.20;99.90;;;;;;5015928;28;20030;-77
2023/11/17 11:28:41;;;;;;;10.55;3.08;;;9.30;99.90;;;;;;5015346;28;20036;-78
2023/11/17 11:31:12;;;;;;;7.65;3.03;;;9.40;99.90;;;;;;5016810;28;20026;-77
2023/11/17 11:33:38;;;;;;;10.13;3.63;;;9.40;99.90;;;;;;5017612;28;20022;-77
2023/11/17 11:36:05;;;;;;;6.47;2.75;;;9.40;99.90;;;;;;5015864;28;20018;-78
2023/11/17 11:38:32;;;;;;;8.05;3.78;;;9.50;99.90;;;;;;5015379;28;20022;-78
2023/11/17 11:40:58;;;;;;;8.70;3.72;;;9.50;99.90;;;;;;5016250;28;20030;-79
2023/11/17 11:43:27;;;;;;;11.85;4.65;;;9.50;99.90;;;;;;5015021;28;20446;-75
2023/11/17 11:45:55;;;;;;;9.82;3.50;;;9.50;99.90;;;;;;5014631;28;20045;-77
2023/11/17 11:48:24;;;;;;;10.98;4.10;;;9.60;99.90;;;;;;5015660;28;20105;-75
2023/11/17 11:50:54;;;;;;;9.93;4.18;;;9.60;99.90;;;;;;5014761;28;20113;-76
2023/11/17 11:53:35;;;;;;;9.40;4.28;;;9.60;99.90;;;;;;5015925;28;20018;-77
2023/11/17 11:56:14;;;;;;;6.50;2.35;;;9.60;99.90;;;;;;5015602;28;20052;-77
2023/11/17 11:58:44;;;;;;;15.15;4.22;;;9.60;99.90;;;;;;5014457;28;20495;-77
2023/11/17 12:01:13;;;;;;;7.55;3.08;;;9.60;99.90;;;;;;5016220;28;20030;-77
2023/11/17 12:03:41;;;;;;;;;;;9.70;99.90;;;;;;5015195;28;20099;-77
2023/11/17 12:06:07;;;;;;;7.80;1.60;;;9.80;99.90;;;;;;5015993;28;19905;-77
2023/11/17 12:08:32;;;;;;;7.47;2.30;;;9.80;99.90;;;;;;5014224;28;20076;-76
2023/11/17 12:11:13;;;;;;;4.40;1.33;;;9.90;99.90;;;;;;5014220;28;20014;-76
2023/11/17 12:13:46;;;;;;;4.20;1.40;;;10.10;99.90;;;;;;5015668;28;20088;-76
2023/11/17 12:16:14;;;;;;;6.85;2.13;;;10.30;99.90;;;;;;5014592;28;20432;-77
2023/11/17 12:18:48;;;;;;;10.93;2.17;;;10.60;99.90;;;;;;5014064;28;20026;-77
2023/11/17 12:21:25;;;;;;;6.40;1.83;;;10.70;99.90;;;;;;5015704;28;20022;-77
2023/11/17 12:23:56;;;;;;;8.60;1.85;;;10.90;99.90;;;;;;5013739;28;20128;-76
2023/11/17 12:26:26;;;;;;;6.88;2.00;;;10.90;99.90;;;;;;5014004;28;20022;-76
2023/11/17 12:28:54;;;;;;;4.75;1.92;;;10.70;99.90;;;;;;5014870;28;20030;-76
2023/11/17 12:31:21;;;;;;;6.78;1.65;;;10.90;99.90;;;;;;5013569;28;20025;-76
2023/11/17 12:33:50;;;;;;;6.70;1.35;;;10.80;99.90;;;;;;5013938;28;20076;-76
2023/11/17 12:36:18;;;;;;;6.47;1.48;;;10.80;99.90;;;;;;5015016;28;20018;-76
2023/11/17 12:38:45;;;;;;;2.20;0.82;;;10.70;99.90;;;;;;5013555;28;20029;-76
2023/11/17 12:41:12;;;;;;;1.92;0.65;;;10.40;99.90;;;;;;5014921;28;20477;-76
2023/11/17 12:43:39;;;;;;;3.90;1.33;;;10.40;99.90;;;;;;5015204;28;20482;-76
2023/11/17 12:46:06;;;;;;;5.47;1.00;;;10.30;99.90;;;;;;5013820;28;20018;-76
2023/11/17 12:48:32;;;;;;;2.80;0.85;;;10.40;99.90;;;;;;5015074;28;20022;-76
2023/11/17 12:50:58;;;;;;;6.18;1.40;;;10.30;99.90;;;;;;5013098;28;20049;-76
2023/11/17 12:53:25;;;;;;;6.68;2.05;;;10.30;99.90;;;;;;5013228;28;20018;-76
2023/11/17 12:55:54;;;;;;;6.07;1.38;;;10.50;99.90;;;;;;5013749;28;20014;-76